Selkirk, United Kingdom
Current Conditions -  °F | °C
As of 9:50 PM on Monday 22 Dec 2014 (Local Time) from EGPH Reporting Station
Clear Clear  
Wind Chill: 37°   Ceiling: Unl
Heat Index: 45°   Visibility: 6mi
Dew Point: 41°   Wind: 16mph
Humidity: 87%   Direction: 240°WSW
Pressure: 29.62"   Gusts: NA
Location:  55.55°N, 2.84°W
Report Text: EGPH 222150Z 24014KT CAVOK 07/05 Q1003
Loading
Personal Weather Stations






























Interactive Weather Map New forecast layout! Learn more

10-Day Weather Forecast

Advertisements
Track Severe Weather on mobile